Time;durP1;ratioP1;P1;durP2;ratioP2;P2;SDS_P1;SDS_P2;PMS_P1;PMS_P2;Temp;Humidity;BMP_temperature;BMP_pressure;BME280_temperature;BME280_humidity;BME280_pressure;Samples;Min_cycle;Max_cycle;Signal;HPM_P1;HPM_P2
2021/11/01 00:01:38;;;;;;;3.15;1.60;;;14.90;86.60;;;;;;4974892;28;20033;-79
2021/11/01 00:04:04;;;;;;;3.15;1.45;;;14.90;87.00;;;;;;4981828;28;20077;-79
2021/11/01 00:06:30;;;;;;;2.00;1.30;;;14.90;87.30;;;;;;4986280;28;20041;-79
2021/11/01 00:08:56;;;;;;;4.80;1.45;;;15.00;86.50;;;;;;4986564;28;20514;-79
2021/11/01 00:11:22;;;;;;;1.55;0.90;;;15.00;86.60;;;;;;4985927;28;20113;-79
2021/11/01 00:13:48;;;;;;;2.42;1.00;;;15.00;86.60;;;;;;4967829;28;20092;-79
2021/11/01 00:16:13;;;;;;;1.83;1.10;;;14.90;87.10;;;;;;4981132;28;20116;-79
2021/11/01 00:18:39;;;;;;;1.90;0.93;;;14.80;87.30;;;;;;4973703;28;20046;-79
2021/11/01 00:21:04;;;;;;;1.00;0.73;;;14.70;88.00;;;;;;4983856;28;20042;-79
2021/11/01 00:23:30;;;;;;;1.90;1.08;;;14.70;88.60;;;;;;4964591;28;20037;-80
2021/11/01 00:25:55;;;;;;;3.03;1.10;;;14.60;88.90;;;;;;4991118;28;20503;-79
2021/11/01 00:28:21;;;;;;;2.00;1.00;;;14.60;89.30;;;;;;4983259;28;20047;-78
2021/11/01 00:30:47;;;;;;;1.42;1.02;;;14.50;89.60;;;;;;4963562;28;20535;-78
2021/11/01 00:33:12;;;;;;;1.80;1.10;;;14.50;90.00;;;;;;4963357;28;20034;-79
2021/11/01 00:35:38;;;;;;;2.67;1.40;;;14.40;90.30;;;;;;4967732;28;20049;-79
2021/11/01 00:38:05;;;;;;;2.92;1.55;;;14.40;90.50;;;;;;4964902;28;20388;-79
2021/11/01 00:40:30;;;;;;;3.72;1.27;;;14.30;90.70;;;;;;4986960;28;20400;-79
2021/11/01 00:42:56;;;;;;;1.77;1.00;;;14.20;91.00;;;;;;4991591;28;20041;-79
2021/11/01 00:45:21;;;;;;;4.05;1.17;;;14.20;91.20;;;;;;4990681;28;20014;-79
2021/11/01 00:47:47;;;;;;;3.75;1.33;;;14.20;91.50;;;;;;4987020;28;20045;-79
2021/11/01 00:50:14;;;;;;;4.97;1.42;;;14.00;90.30;;;;;;4988052;28;20030;-78
2021/11/01 00:52:40;;;;;;;4.15;1.27;;;13.90;88.40;;;;;;4977626;28;20050;-79
2021/11/01 00:55:09;;;;;;;6.88;1.90;;;13.80;87.20;;;;;;4976876;28;20023;-79
2021/11/01 00:57:35;;;;;;;6.85;1.77;;;13.70;85.30;;;;;;4986263;28;20029;-79
2021/11/01 01:00:01;;;;;;;9.00;1.52;;;13.60;85.20;;;;;;4983242;28;20023;-79
2021/11/01 01:02:34;;;;;;;9.82;1.95;;;13.60;85.40;;;;;;4986409;28;20026;-79
2021/11/01 01:05:01;;;;;;;10.68;2.03;;;13.50;86.80;;;;;;4982806;28;20407;-79
2021/11/01 01:07:27;;;;;;;8.77;1.88;;;13.30;87.80;;;;;;4979944;28;20049;-79
2021/11/01 01:09:52;;;;;;;9.90;1.83;;;13.20;88.90;;;;;;4960859;28;20054;-79
2021/11/01 01:12:18;;;;;;;7.43;1.70;;;13.00;89.70;;;;;;4987947;28;20047;-79
2021/11/01 01:14:54;;;;;;;10.35;2.03;;;12.90;90.40;;;;;;4983145;28;20117;-79
2021/11/01 01:17:21;;;;;;;9.10;1.73;;;12.80;90.90;;;;;;4976947;28;20504;-79
2021/11/01 01:19:58;;;;;;;8.02;1.48;;;12.80;91.30;;;;;;4979866;28;20047;-79
2021/11/01 01:22:29;;;;;;;7.22;1.30;;;12.70;91.70;;;;;;4962193;28;20557;-79
2021/11/01 01:24:58;;;;;;;11.60;1.40;;;12.80;90.90;;;;;;4980783;28;20030;-79
2021/11/01 01:27:24;;;;;;;8.60;1.60;;;12.80;90.00;;;;;;4983313;28;20023;-79
2021/11/01 01:29:50;;;;;;;9.15;1.33;;;12.70;89.70;;;;;;4976106;28;20089;-79
2021/11/01 01:32:16;;;;;;;14.27;1.70;;;12.70;89.80;;;;;;4985615;28;20029;-78
2021/11/01 01:34:41;;;;;;;13.35;2.08;;;12.60;90.30;;;;;;4981025;28;20030;-79
2021/11/01 01:37:07;;;;;;;6.35;1.50;;;12.60;90.00;;;;;;4977806;28;20551;-79
2021/11/01 01:39:33;;;;;;;11.43;1.88;;;12.60;90.40;;;;;;4982293;28;20069;-79
2021/11/01 01:41:58;;;;;;;9.45;1.70;;;12.50;90.30;;;;;;4987598;28;20041;-79
2021/11/01 01:44:24;;;;;;;5.70;1.70;;;12.50;90.60;;;;;;4978829;28;20376;-78
2021/11/01 01:46:49;;;;;;;7.97;1.40;;;12.50;90.50;;;;;;4969978;28;20483;-79
2021/11/01 01:49:15;;;;;;;10.75;1.65;;;12.60;90.20;;;;;;4965102;28;20038;-79
2021/11/01 01:51:40;;;;;;;8.68;1.33;;;12.50;90.50;;;;;;4981441;28;20074;-78
2021/11/01 01:54:06;;;;;;;8.60;1.83;;;12.50;90.70;;;;;;4966580;28;20448;-79
2021/11/01 01:56:31;;;;;;;7.43;1.20;;;12.30;91.20;;;;;;4977660;28;20065;-79
2021/11/01 01:59:01;;;;;;;9.25;1.55;;;12.20;91.40;;;;;;4982729;28;20522;-79
2021/11/01 02:01:27;;;;;;;9.88;1.65;;;12.20;91.90;;;;;;4984031;28;20304;-79
2021/11/01 02:03:53;;;;;;;12.55;1.80;;;12.10;92.40;;;;;;4960244;28;20058;-79
2021/11/01 02:06:44;;;;;;;7.18;1.45;;;12.10;92.40;;;;;;4984628;28;20033;-78
2021/11/01 02:09:23;;;;;;;7.22;1.40;;;12.10;92.20;;;;;;4982884;28;20062;-79
2021/11/01 02:12:08;;;;;;;9.18;1.70;;;12.10;92.20;;;;;;4990631;28;20290;-79
2021/11/01 02:14:39;;;;;;;10.15;1.70;;;12.10;91.50;;;;;;4974745;28;20554;-79
2021/11/01 02:17:05;;;;;;;7.07;1.80;;;12.10;91.10;;;;;;4960448;28;20054;-79
2021/11/01 02:19:37;;;;;;;16.85;2.25;;;12.10;91.30;;;;;;4981405;28;20026;-78
2021/11/01 02:22:09;;;;;;;10.20;1.88;;;12.00;91.30;;;;;;4986977;28;20026;-79
2021/11/01 02:24:52;;;;;;;10.45;1.95;;;12.00;91.30;;;;;;4990066;28;20034;-79
2021/11/01 02:27:19;;;;;;;12.90;2.00;;;12.00;91.30;;;;;;4986556;28;20022;-79
2021/11/01 02:29:46;;;;;;;9.15;1.95;;;11.90;91.30;;;;;;4967271;28;20097;-79
2021/11/01 02:32:13;;;;;;;10.93;2.05;;;11.90;91.30;;;;;;4987214;28;20104;-79
2021/11/01 02:34:40;;;;;;;8.70;1.92;;;11.90;90.90;;;;;;4982136;28;20684;-78
2021/11/01 02:37:06;;;;;;;13.55;2.42;;;11.80;91.20;;;;;;4971538;28;20030;-78
2021/11/01 02:39:45;;;;;;;12.10;2.35;;;11.80;91.20;;;;;;4989563;28;20037;-79
2021/11/01 02:42:11;;;;;;;12.13;1.77;;;11.70;90.60;;;;;;4984604;28;20041;-79
2021/11/01 02:44:36;;;;;;;12.30;2.00;;;11.60;91.00;;;;;;4973293;28;20395;-79
2021/11/01 02:47:02;;;;;;;13.68;2.45;;;11.60;91.10;;;;;;4983952;28;20034;-79
2021/11/01 02:49:27;;;;;;;8.05;1.60;;;11.50;91.10;;;;;;4967493;28;20106;-79
2021/11/01 02:51:53;;;;;;;13.35;1.92;;;11.40;91.00;;;;;;4978255;28;20101;-79
2021/11/01 02:54:18;;;;;;;12.93;2.08;;;11.30;91.50;;;;;;4967723;28;20019;-79
2021/11/01 02:56:44;;;;;;;13.52;1.75;;;11.20;91.70;;;;;;4968285;28;20279;-79
2021/11/01 02:59:09;;;;;;;14.70;2.30;;;11.10;91.80;;;;;;4967161;28;20022;-79
2021/11/01 03:01:35;;;;;;;14.15;2.45;;;11.10;92.00;;;;;;4968789;28;20030;-78
2021/11/01 03:04:00;;;;;;;11.55;1.83;;;11.00;92.10;;;;;;4972127;28;20038;-79
2021/11/01 03:06:28;;;;;;;16.27;2.55;;;11.00;92.00;;;;;;4986849;28;20109;-79
2021/11/01 03:08:55;;;;;;;11.15;2.10;;;10.90;92.00;;;;;;4966944;28;20038;-79
2021/11/01 03:11:24;;;;;;;17.23;2.28;;;10.90;92.40;;;;;;4977547;28;20203;-79
2021/11/01 03:13:49;;;;;;;19.27;2.75;;;10.90;92.20;;;;;;4962293;28;20038;-79
2021/11/01 03:16:16;;;;;;;11.43;2.42;;;10.90;92.50;;;;;;5004994;23;20042;-79
2021/11/01 03:18:47;;;;;;;18.75;2.72;;;10.80;92.30;;;;;;4965999;28;20034;-79
2021/11/01 03:21:17;;;;;;;10.60;2.58;;;10.80;92.50;;;;;;4990521;28;20048;-79
2021/11/01 03:23:47;;;;;;;14.77;2.03;;;10.80;92.60;;;;;;4996161;28;20438;-79
2021/11/01 03:26:18;;;;;;;12.13;2.35;;;10.70;92.70;;;;;;4993657;28;20011;-79
2021/11/01 03:28:48;;;;;;;11.07;2.35;;;10.70;92.90;;;;;;4987888;28;20085;-79
2021/11/01 03:31:15;;;;;;;15.30;2.10;;;10.70;92.80;;;;;;4985851;28;20015;-79
2021/11/01 03:33:41;;;;;;;20.98;2.10;;;10.60;93.00;;;;;;4979046;28;20053;-79
2021/11/01 03:36:09;;;;;;;17.70;2.35;;;10.70;93.00;;;;;;4964662;28;20552;-79
2021/11/01 03:38:37;;;;;;;7.45;1.58;;;10.70;93.10;;;;;;4988776;28;20066;-79
2021/11/01 03:41:08;;;;;;;19.88;2.50;;;10.60;93.00;;;;;;4971354;28;20058;-79
2021/11/01 03:43:38;;;;;;;14.88;2.13;;;10.60;93.40;;;;;;4967370;28;20030;-79
2021/11/01 03:46:05;;;;;;;15.95;2.40;;;10.50;93.60;;;;;;4982715;28;20022;-79
2021/11/01 03:48:38;;;;;;;10.13;2.10;;;10.60;93.60;;;;;;4977090;28;20022;-79
2021/11/01 03:51:10;;;;;;;10.45;2.42;;;10.60;93.50;;;;;;4978447;28;20503;-79
2021/11/01 03:53:36;;;;;;;14.35;2.35;;;10.50;93.60;;;;;;4982254;28;20033;-79
2021/11/01 03:56:03;;;;;;;14.27;2.50;;;10.50;93.80;;;;;;4989970;28;20161;-79
2021/11/01 03:58:28;;;;;;;19.85;2.50;;;10.40;93.90;;;;;;4990015;28;20062;-79
2021/11/01 04:00:55;;;;;;;15.23;2.33;;;10.40;94.20;;;;;;4984898;28;20031;-79
2021/11/01 04:03:25;;;;;;;14.23;2.13;;;10.40;94.20;;;;;;4985300;28;20038;-79
2021/11/01 04:05:55;;;;;;;18.40;2.70;;;10.40;94.20;;;;;;4994329;28;20042;-79
2021/11/01 04:08:21;;;;;;;13.63;2.15;;;10.50;94.00;;;;;;4988234;28;20278;-79
2021/11/01 04:10:47;;;;;;;15.00;2.33;;;10.50;93.90;;;;;;4988198;28;20026;-79
2021/11/01 04:13:13;;;;;;;19.77;2.55;;;10.50;93.90;;;;;;4993930;28;20022;-79
2021/11/01 04:15:44;;;;;;;16.63;3.03;;;10.40;93.90;;;;;;4992301;28;20398;-78
2021/11/01 04:18:12;;;;;;;;;;;10.50;94.00;;;;;;4976954;28;20030;-79
2021/11/01 04:20:52;;;;;;;13.68;2.03;;;10.50;93.90;;;;;;4983258;28;19910;-79
2021/11/01 04:23:20;;;;;;;15.43;3.08;;;10.40;94.00;;;;;;4993270;28;20512;-79
2021/11/01 04:25:46;;;;;;;15.38;3.17;;;10.50;94.10;;;;;;4987471;28;20109;-79
2021/11/01 04:28:11;;;;;;;19.58;3.15;;;10.50;93.80;;;;;;4966601;28;20102;-78
2021/11/01 04:30:42;;;;;;;16.42;3.50;;;10.50;93.80;;;;;;4990650;28;20023;-78
2021/11/01 04:33:12;;;;;;;17.17;3.30;;;10.50;93.60;;;;;;4985123;28;20118;-79
2021/11/01 04:35:38;;;;;;;19.80;3.40;;;10.50;93.80;;;;;;4979017;28;20572;-78
2021/11/01 04:43:43;;;;;;;12.43;2.75;;;10.50;93.70;;;;;;4983951;28;20095;-79
2021/11/01 04:54:24;;;;;;;19.92;3.55;;;10.50;93.70;;;;;;4984519;28;20033;-78
2021/11/01 04:56:50;;;;;;;16.95;3.63;;;10.50;93.60;;;;;;4982300;28;20054;-79
2021/11/01 04:59:15;;;;;;;13.70;3.97;;;10.50;93.70;;;;;;4969961;28;20126;-79
2021/11/01 05:01:45;;;;;;;13.48;3.83;;;10.40;94.10;;;;;;4984448;28;20101;-78
2021/11/01 05:04:17;;;;;;;12.38;3.75;;;10.50;94.10;;;;;;4981389;28;20476;-78
2021/11/01 05:06:50;;;;;;;17.40;4.15;;;10.40;94.20;;;;;;4961843;28;20139;-79
2021/11/01 05:09:21;;;;;;;13.15;4.20;;;10.50;94.20;;;;;;4980559;28;20030;-78
2021/11/01 05:14:19;;;;;;;;;;;10.40;94.00;;;;;;4980631;28;20058;-79
2021/11/01 05:16:58;;;;;;;11.65;4.10;;;10.40;94.20;;;;;;4973973;28;19914;-79
2021/11/01 05:19:27;;;;;;;14.50;4.38;;;10.40;94.20;;;;;;4981387;28;20033;-80
2021/11/01 05:22:03;;;;;;;20.45;4.63;;;10.40;94.30;;;;;;4982784;28;20113;-80
2021/11/01 05:24:39;;;;;;;17.80;4.35;;;10.40;94.40;;;;;;4978290;28;20027;-79
2021/11/01 05:29:33;;;;;;;16.15;5.18;;;10.30;94.20;;;;;;4978447;28;20049;-80
2021/11/01 05:32:17;;;;;;;14.23;4.72;;;10.40;94.30;;;;;;4956601;28;20038;-79
2021/11/01 05:34:43;;;;;;;20.42;5.22;;;10.30;94.30;;;;;;4977708;28;20469;-79
2021/11/01 05:37:09;;;;;;;14.20;4.80;;;10.30;94.40;;;;;;4956455;28;20077;-77
2021/11/01 05:39:37;;;;;;;17.58;5.43;;;10.30;94.20;;;;;;4981875;28;20022;-80
2021/11/01 05:42:02;;;;;;;16.75;4.75;;;10.30;94.30;;;;;;4984384;28;20351;-78
2021/11/01 05:44:28;;;;;;;19.58;5.50;;;10.30;94.00;;;;;;4964615;28;20109;-79
2021/11/01 05:46:53;;;;;;;14.50;5.32;;;10.30;93.90;;;;;;4984867;28;20031;-78
2021/11/01 05:49:22;;;;;;;15.70;4.50;;;10.30;93.80;;;;;;4979804;28;20039;-79
2021/11/01 05:51:48;;;;;;;17.33;4.82;;;10.30;93.80;;;;;;4965806;28;20027;-77
2021/11/01 05:54:17;;;;;;;18.42;5.00;;;10.30;93.70;;;;;;4976900;28;20026;-78
2021/11/01 05:56:50;;;;;;;17.25;4.97;;;10.30;93.50;;;;;;4986430;28;20228;-79
2021/11/01 05:59:38;;;;;;;18.25;5.18;;;10.20;93.60;;;;;;4988069;28;20042;-79
2021/11/01 06:07:27;;;;;;;15.52;5.72;;;10.20;93.80;;;;;;4987244;28;20040;-79
2021/11/01 06:15:06;;;;;;;18.63;4.82;;;10.20;93.60;;;;;;4974671;28;20167;-78
2021/11/01 06:17:32;;;;;;;17.55;4.70;;;10.20;93.80;;;;;;4982306;28;20104;-78
2021/11/01 06:19:58;;;;;;;16.77;4.60;;;10.20;93.70;;;;;;4981740;28;20030;-80
2021/11/01 06:22:24;;;;;;;17.95;4.78;;;10.20;93.70;;;;;;4983294;28;20027;-80
2021/11/01 06:24:51;;;;;;;22.05;4.55;;;10.20;93.40;;;;;;5001132;28;20426;-79
2021/11/01 06:27:19;;;;;;;16.48;4.57;;;10.10;93.50;;;;;;4983910;28;20469;-79
2021/11/01 06:32:58;;;;;;;15.98;4.03;;;10.10;93.70;;;;;;4987051;28;20026;-80
2021/11/01 06:43:58;;;;;;;15.10;3.75;;;10.10;93.70;;;;;;4991411;28;20034;-80
2021/11/01 07:15:35;;;;;;;14.10;3.03;;;10.20;92.90;;;;;;4990550;28;20053;-80
2021/11/01 07:18:07;;;;;;;9.35;2.80;;;10.20;93.00;;;;;;4983988;28;20033;-80
2021/11/01 07:20:48;;;;;;;14.02;2.70;;;10.20;92.90;;;;;;4971257;28;20305;-80
2021/11/01 07:23:37;;;;;;;14.43;2.50;;;10.20;92.70;;;;;;4985768;28;20380;-80
2021/11/01 08:21:03;;;;;;;8.77;1.83;;;10.90;88.20;;;;;;4982244;28;20018;-82
2021/11/01 08:37:30;;;;;;;11.30;1.80;;;11.10;87.10;;;;;;4986700;28;20088;-82
2021/11/01 09:04:04;;;;;;;8.85;2.55;;;11.30;85.60;;;;;;4985593;28;20034;-82
2021/11/01 09:20:04;;;;;;;10.52;1.88;;;11.40;84.70;;;;;;4985488;28;20661;-74
2021/11/01 09:25:49;;;;;;;8.45;1.75;;;11.60;83.80;;;;;;4981795;28;20433;-74
2021/11/01 09:27:50;;;;;;;8.93;1.60;;;11.60;83.90;;;;;;4961629;28;20026;-72
2021/11/01 09:30:33;;;;;;;8.35;1.83;;;11.80;84.00;;;;;;4964302;28;20083;-74
2021/11/01 09:35:55;;;;;;;8.30;1.77;;;12.10;82.10;;;;;;4957662;28;20121;-74
2021/11/01 09:41:06;;;;;;;6.53;1.60;;;12.50;81.30;;;;;;4963503;28;20116;-74
2021/11/01 09:43:32;;;;;;;5.63;1.40;;;12.50;79.80;;;;;;4966167;28;20060;-74
2021/11/01 09:46:04;;;;;;;7.78;1.25;;;12.60;80.40;;;;;;4976228;28;20106;-73
2021/11/01 09:48:29;;;;;;;9.13;1.10;;;12.80;80.20;;;;;;4966884;28;20058;-74
2021/11/01 09:50:55;;;;;;;5.13;1.33;;;13.00;79.30;;;;;;4964629;28;20432;-74
2021/11/01 09:53:26;;;;;;;8.25;1.30;;;12.70;79.10;;;;;;4962706;28;20058;-74
2021/11/01 10:01:22;;;;;;;8.32;1.25;;;12.90;79.70;;;;;;4960943;28;20074;-73
2021/11/01 10:03:50;;;;;;;5.10;1.40;;;13.10;77.70;;;;;;4963516;28;20421;-76
2021/11/01 10:06:18;;;;;;;3.97;1.00;;;13.30;77.60;;;;;;4962835;28;20023;-77
2021/11/01 10:09:01;;;;;;;6.18;1.23;;;13.20;76.70;;;;;;4949336;28;20043;-76
2021/11/01 10:11:30;;;;;;;7.15;1.23;;;13.00;76.00;;;;;;4947992;28;20027;-76
2021/11/01 10:14:05;;;;;;;6.50;1.25;;;12.90;77.80;;;;;;4974341;28;20042;-77
2021/11/01 10:19:38;;;;;;;5.25;1.02;;;13.10;77.30;;;;;;4955623;28;20106;-76
2021/11/01 10:22:07;;;;;;;4.28;1.00;;;13.30;76.20;;;;;;4945651;28;20046;-74
2021/11/01 10:24:40;;;;;;;5.05;1.02;;;13.10;75.60;;;;;;4947977;28;20483;-74
2021/11/01 10:27:12;;;;;;;4.85;1.02;;;12.80;76.10;;;;;;4976320;28;20129;-74
2021/11/01 10:30:12;;;;;;;5.40;1.23;;;12.80;77.20;;;;;;4956718;28;20019;-73
2021/11/01 10:32:50;;;;;;;9.25;1.45;;;12.80;77.60;;;;;;4971846;28;20331;-73
2021/11/01 10:35:21;;;;;;;6.00;1.27;;;12.70;76.60;;;;;;4947397;28;20122;-74
2021/11/01 10:37:58;;;;;;;4.10;1.25;;;12.70;76.50;;;;;;4961475;28;20057;-74
2021/11/01 10:40:26;;;;;;;5.55;1.17;;;12.60;76.60;;;;;;4963730;28;20039;-73
2021/11/01 10:42:53;;;;;;;6.97;1.45;;;12.60;76.40;;;;;;4961425;28;20528;-74
2021/11/01 10:46:02;;;;;;;4.45;1.10;;;12.60;76.50;;;;;;4946921;28;20118;-74
2021/11/01 10:58:00;;;;;;;5.32;1.38;;;12.90;76.10;;;;;;4967025;28;20041;-74
2021/11/01 11:11:31;;;;;;;5.18;1.10;;;12.90;75.30;;;;;;4976250;28;20472;-74
2021/11/01 11:14:07;;;;;;;7.25;1.35;;;12.90;75.10;;;;;;4949647;28;20027;-74
2021/11/01 11:19:53;;;;;;;4.18;1.25;;;12.80;74.50;;;;;;4965283;28;20412;-73
2021/11/01 11:30:43;;;;;;;4.70;1.30;;;12.90;75.20;;;;;;4888072;29;20036;-74
2021/11/01 11:39:32;;;;;;;2.67;0.98;;;13.10;74.70;;;;;;4967992;28;20033;-74
2021/11/01 11:50:23;;;;;;;9.73;1.77;;;14.20;69.40;;;;;;4964987;28;20037;-74
2021/11/01 11:52:49;;;;;;;8.63;1.08;;;13.60;71.40;;;;;;4946568;28;20109;-74
2021/11/01 11:55:21;;;;;;;4.07;1.10;;;13.60;72.40;;;;;;4966941;28;20034;-76
2021/11/01 11:58:07;;;;;;;3.78;1.17;;;14.10;71.10;;;;;;4971048;28;20121;-74
2021/11/01 12:00:36;;;;;;;5.13;1.30;;;14.00;68.20;;;;;;4974293;28;20146;-77
2021/11/01 12:03:12;;;;;;;8.10;1.20;;;13.60;69.30;;;;;;4967582;28;20054;-76
2021/11/01 12:05:43;;;;;;;5.85;1.17;;;13.40;70.10;;;;;;4965325;28;20033;-77
2021/11/01 12:08:28;;;;;;;6.38;1.40;;;13.40;70.70;;;;;;4948972;28;20239;-77
2021/11/01 12:11:15;;;;;;;4.55;1.35;;;13.10;71.00;;;;;;4961357;28;20041;-76
2021/11/01 12:14:13;;;;;;;6.47;1.73;;;13.20;71.70;;;;;;4955615;28;20022;-74
2021/11/01 12:19:24;;;;;;;4.78;1.02;;;13.60;69.40;;;;;;4973191;28;20090;-73
2021/11/01 12:21:51;;;;;;;4.10;1.15;;;13.40;70.30;;;;;;4980375;28;20038;-74
2021/11/01 12:24:23;;;;;;;5.25;1.08;;;13.60;70.90;;;;;;4970040;28;20106;-74
2021/11/01 12:27:09;;;;;;;5.05;1.45;;;13.80;70.70;;;;;;4965182;28;20157;-74
2021/11/01 12:29:36;;;;;;;8.27;1.38;;;13.50;69.60;;;;;;4945196;28;20431;-74
2021/11/01 12:32:07;;;;;;;3.45;1.27;;;13.50;70.40;;;;;;4945584;28;20104;-74
2021/11/01 12:34:38;;;;;;;7.25;1.13;;;13.50;70.50;;;;;;4946975;28;20117;-73
2021/11/01 12:37:08;;;;;;;5.10;1.25;;;13.60;70.40;;;;;;4950158;28;20229;-74
2021/11/01 12:45:26;;;;;;;5.03;1.30;;;14.00;68.20;;;;;;4964529;28;20400;-73
2021/11/01 12:58:17;;;;;;;6.45;1.30;;;14.30;68.90;;;;;;4960492;28;20038;-74
2021/11/01 13:00:44;;;;;;;3.00;1.35;;;14.70;65.30;;;;;;4957106;28;20027;-74
2021/11/01 13:03:16;;;;;;;5.15;1.13;;;14.70;65.60;;;;;;4963400;28;20145;-75
2021/11/01 13:06:27;;;;;;;4.18;1.10;;;14.70;64.10;;;;;;4963978;28;20019;-74
2021/11/01 13:08:51;;;;;;;6.20;1.00;;;15.00;64.40;;;;;;4956027;28;20035;-73
2021/11/01 13:11:32;;;;;;;3.63;0.90;;;14.40;64.60;;;;;;4944768;28;20046;-74
2021/11/01 13:14:28;;;;;;;7.68;1.08;;;14.20;66.60;;;;;;4960344;28;20099;-74
2021/11/01 13:19:46;;;;;;;4.40;1.15;;;14.50;65.60;;;;;;4965392;28;20508;-73
2021/11/01 13:22:18;;;;;;;5.70;1.15;;;14.50;66.60;;;;;;4960528;28;20389;-74
2021/11/01 13:24:58;;;;;;;5.03;1.42;;;14.20;65.80;;;;;;4963398;28;20291;-73
2021/11/01 13:38:41;;;;;;;6.40;1.42;;;13.90;66.30;;;;;;4962620;28;20034;-75
2021/11/01 13:41:15;;;;;;;3.90;1.10;;;13.70;67.50;;;;;;4956763;28;20082;-74
2021/11/01 13:43:40;;;;;;;3.85;1.60;;;13.50;68.90;;;;;;4962094;28;20122;-74
2021/11/01 13:46:06;;;;;;;4.38;1.35;;;13.20;70.00;;;;;;4944274;28;20134;-74
2021/11/01 13:48:33;;;;;;;5.78;1.42;;;13.00;70.20;;;;;;4965090;28;20273;-74
2021/11/01 13:51:10;;;;;;;4.47;1.02;;;12.90;70.10;;;;;;4946213;28;20033;-74
2021/11/01 13:54:02;;;;;;;6.22;1.15;;;12.80;70.80;;;;;;4952297;28;20034;-74
2021/11/01 13:56:40;;;;;;;2.92;1.10;;;12.70;71.60;;;;;;4959616;28;20046;-74
2021/11/01 13:59:37;;;;;;;2.78;1.10;;;12.70;72.30;;;;;;4973265;28;20101;-74
2021/11/01 14:02:19;;;;;;;2.22;1.17;;;12.70;72.70;;;;;;4961642;28;20421;-74
2021/11/01 14:13:13;;;;;;;5.80;1.13;;;12.80;72.70;;;;;;4974604;28;20082;-75
2021/11/01 14:29:47;;;;;;;5.32;1.30;;;13.60;68.70;;;;;;4924739;29;20020;-74
2021/11/01 14:32:36;;;;;;;3.08;1.17;;;13.30;68.80;;;;;;4926413;29;20170;-74
2021/11/01 14:35:36;;;;;;;4.55;1.30;;;13.30;69.70;;;;;;4951241;28;20402;-74
2021/11/01 14:58:00;;;;;;;5.35;1.20;;;12.20;73.00;;;;;;4973186;28;20100;-74
2021/11/01 15:03:33;;;;;;;3.90;1.15;;;12.00;73.80;;;;;;4980749;28;20057;-74
2021/11/01 15:16:14;;;;;;;3.50;1.38;;;11.70;74.60;;;;;;5023040;23;21558;-80
2021/11/01 15:19:39;;;;;;;3.42;1.52;;;11.60;73.90;;;;;;4988843;28;20090;-80
2021/11/01 15:21:33;;;;;;;5.18;1.55;;;11.60;75.10;;;;;;4981762;28;20046;-80
2021/11/01 15:24:22;;;;;;;5.50;1.30;;;11.40;76.10;;;;;;4971917;28;20041;-79
2021/11/01 15:26:59;;;;;;;4.20;1.50;;;11.50;75.20;;;;;;4983709;28;20026;-80
2021/11/01 15:32:41;;;;;;;3.53;1.10;;;11.40;76.50;;;;;;4961196;28;20527;-78
2021/11/01 15:40:28;;;;;;;3.45;1.30;;;11.10;77.30;;;;;;4973094;28;20027;-80
2021/11/01 16:18:15;;;;;;;10.85;2.00;;;10.10;81.10;;;;;;4973264;28;20030;-78
2021/11/01 16:20:40;;;;;;;7.75;2.03;;;10.10;81.00;;;;;;4967678;28;20054;-79
2021/11/01 16:25:32;;;;;;;4.45;1.73;;;9.90;81.50;;;;;;4971876;28;20500;-79
2021/11/01 16:27:58;;;;;;;8.50;1.95;;;9.80;82.10;;;;;;4974484;28;20074;-79
2021/11/01 16:30:26;;;;;;;7.47;2.25;;;9.70;82.50;;;;;;4970927;28;20027;-82
2021/11/01 16:32:59;;;;;;;5.78;1.90;;;9.60;82.60;;;;;;4975593;28;20035;-82
2021/11/01 16:35:32;;;;;;;5.45;1.90;;;9.60;82.60;;;;;;4969273;28;20042;-82
2021/11/01 16:38:05;;;;;;;5.40;1.77;;;9.60;83.30;;;;;;4966774;28;20057;-81
2021/11/01 16:40:32;;;;;;;6.18;1.95;;;9.50;82.90;;;;;;4971525;28;21622;-81
2021/11/01 16:42:59;;;;;;;6.55;1.73;;;9.50;83.30;;;;;;4953872;28;20035;-81
2021/11/01 16:45:34;;;;;;;5.57;1.70;;;9.60;83.30;;;;;;4975624;28;20527;-79
2021/11/01 16:48:00;;;;;;;4.90;1.75;;;9.60;82.90;;;;;;4966331;28;20027;-79
2021/11/01 16:50:27;;;;;;;3.15;1.55;;;9.60;83.10;;;;;;4953375;28;20023;-79
2021/11/01 16:52:53;;;;;;;3.85;1.83;;;9.60;83.20;;;;;;4962961;28;20031;-79
2021/11/01 16:55:24;;;;;;;6.30;1.92;;;9.60;83.00;;;;;;4972178;28;20050;-79
2021/11/01 16:57:55;;;;;;;5.82;1.90;;;9.70;82.90;;;;;;4967176;28;20499;-78
2021/11/01 17:00:27;;;;;;;3.28;1.50;;;9.80;82.50;;;;;;4975938;28;20070;-79
2021/11/01 17:03:30;;;;;;;6.50;1.67;;;9.80;82.10;;;;;;4953714;28;21461;-79
2021/11/01 17:06:37;;;;;;;4.35;1.67;;;9.90;81.80;;;;;;4966180;28;20717;-79
2021/11/01 17:25:16;;;;;;;5.78;1.70;;;9.30;83.10;;;;;;4971586;28;20037;-79
2021/11/01 17:27:55;;;;;;;5.47;1.60;;;9.40;83.20;;;;;;4951573;28;20475;-79
2021/11/01 18:40:24;;;;;;;3.20;1.65;;;8.50;84.80;;;;;;4969183;28;20038;-79
2021/11/01 18:51:06;;;;;;;6.88;2.00;;;8.10;86.50;;;;;;4960908;28;20037;-80
2021/11/01 18:53:48;;;;;;;6.38;2.13;;;8.20;86.60;;;;;;4959018;28;20626;-78
2021/11/01 18:56:14;;;;;;;6.72;1.98;;;8.30;86.00;;;;;;4966108;28;20023;-80
2021/11/01 18:58:41;;;;;;;6.53;2.20;;;8.20;86.20;;;;;;4965972;28;20026;-80
2021/11/01 19:01:11;;;;;;;4.60;1.70;;;8.20;86.50;;;;;;4962048;28;20057;-80
2021/11/01 19:03:43;;;;;;;6.82;1.65;;;8.10;86.50;;;;;;4967614;28;20027;-79
2021/11/01 19:08:56;;;;;;;8.82;2.30;;;7.90;87.10;;;;;;4960983;28;20023;-80
2021/11/01 19:12:13;;;;;;;5.67;1.90;;;7.80;87.10;;;;;;4948511;28;20130;-80
2021/11/01 20:08:12;;;;;;;8.15;2.42;;;7.30;88.70;;;;;;4962755;28;20401;-80
2021/11/01 20:13:01;;;;;;;5.70;2.13;;;7.30;89.10;;;;;;4969310;28;20052;-80
2021/11/01 21:25:02;;;;;;;6.25;1.73;;;6.70;90.90;;;;;;4944387;28;20384;-67
2021/11/01 21:27:28;;;;;;;7.57;2.22;;;7.00;90.80;;;;;;4947316;28;20027;-67
2021/11/01 21:29:54;;;;;;;6.45;2.03;;;6.90;90.60;;;;;;4948302;28;20049;-70
2021/11/01 21:32:20;;;;;;;6.72;2.08;;;6.90;91.30;;;;;;4956433;28;20023;-69
2021/11/01 21:37:23;;;;;;;6.25;2.40;;;6.90;91.10;;;;;;4955347;28;20058;-70
2021/11/01 21:39:50;;;;;;;3.22;1.92;;;7.00;90.70;;;;;;4956898;28;20038;-70
2021/11/01 21:42:16;;;;;;;8.30;2.25;;;7.00;91.10;;;;;;4955899;28;20026;-69
2021/11/01 21:44:41;;;;;;;6.32;2.20;;;7.00;91.40;;;;;;4947198;28;20340;-70
2021/11/01 21:47:09;;;;;;;6.57;2.20;;;6.90;91.30;;;;;;4951478;28;20030;-70
2021/11/01 21:49:34;;;;;;;7.97;2.50;;;6.90;91.40;;;;;;4950955;28;20082;-69
2021/11/01 21:52:00;;;;;;;5.07;1.90;;;7.00;91.40;;;;;;4931659;28;20324;-70
2021/11/01 21:54:28;;;;;;;6.43;2.15;;;6.90;91.30;;;;;;4952280;28;20065;-70
2021/11/01 22:00:04;;;;;;;6.93;2.17;;;6.80;91.70;;;;;;4922594;28;20089;-69
2021/11/01 22:21:05;;;;;;;4.22;2.10;;;6.40;92.90;;;;;;4969426;28;20038;-70
2021/11/01 22:45:20;;;;;;;7.53;2.13;;;6.40;94.00;;;;;;4974315;28;20042;-71
2021/11/01 22:55:56;;;;;;;6.82;2.38;;;6.20;94.10;;;;;;4980811;28;20052;-68
2021/11/01 22:58:23;;;;;;;9.55;2.50;;;6.10;94.10;;;;;;4978010;28;20034;-68
2021/11/01 23:00:58;;;;;;;9.85;2.20;;;6.10;94.20;;;;;;4977627;28;20030;-68
2021/11/01 23:06:18;;;;;;;10.48;3.20;;;6.10;94.50;;;;;;4968789;28;20577;-69
2021/11/01 23:33:24;;;;;;;12.93;3.60;;;6.00;95.10;;;;;;4977660;28;20125;-69
2021/11/01 23:35:51;;;;;;;12.38;3.42;;;6.00;95.50;;;;;;4980267;28;20362;-69
2021/11/01 23:38:18;;;;;;;10.15;3.65;;;6.00;95.50;;;;;;4973728;28;20172;-69
2021/11/01 23:40:44;;;;;;;13.52;3.67;;;6.00;95.50;;;;;;4981110;28;20035;-69
2021/11/01 23:43:12;;;;;;;8.05;3.28;;;6.00;95.70;;;;;;4975733;28;20030;-69
2021/11/01 23:45:43;;;;;;;7.72;3.67;;;5.90;95.50;;;;;;4969094;28;20046;-69
2021/11/01 23:48:09;;;;;;;6.43;3.20;;;6.00;95.70;;;;;;4972766;28;20031;-69
2021/11/01 23:50:35;;;;;;;7.97;3.08;;;6.00;95.70;;;;;;4965790;28;20892;-69
2021/11/01 23:53:15;;;;;;;10.98;3.53;;;5.90;95.70;;;;;;4974935;28;20214;-69
2021/11/01 23:55:41;;;;;;;15.07;3.58;;;5.90;95.70;;;;;;4963877;28;20474;-69
2021/11/01 23:58:07;;;;;;;9.32;3.38;;;5.80;95.70;;;;;;4986684;28;20066;-69
